Observation data for Fluvanna on 11/19/2019      Previous  Date       Current Mesonet Observations  Soil Data  Daily Summary Page  Observations in Plain Language
KFVS 190600Z 13007KT 12/01 A2997 RMK A01 T01180012  RH  049%=      5-min Rain = 0
KFVS 190605Z 11006KT 11/01 A2997 RMK A01 T01070012  RH  053%=      5-min Rain = 0
KFVS 190610Z 12006KT 10/01 A2997 RMK A01 T01030014  RH  054%=      5-min Rain = 0
KFVS 190615Z 13006KT 11/02 A2997 RMK A01 T01070015  RH  054%=      5-min Rain = 0
KFVS 190620Z 13006KT 11/02 A2997 RMK A01 T01130016  RH  052%=      5-min Rain = 0
KFVS 190625Z 13008KT 11/02 A2996 RMK A01 T01130017  RH  052%=      5-min Rain = 0
KFVS 190630Z 13008KT 11/02 A2996 RMK A01 T01130020  RH  053%=      5-min Rain = 0
KFVS 190635Z 14008KT 12/02 A2996 RMK A01 T01150020  RH  053%=      5-min Rain = 0
KFVS 190640Z 14008KT 12/02 A2996 RMK A01 T01180020  RH  052%=      5-min Rain = 0
KFVS 190645Z 14008KT 12/02 A2996 RMK A01 T01170021  RH  052%=      5-min Rain = 0
KFVS 190650Z 14008KT 12/02 A2996 RMK A01 T01180022  RH  053%=      5-min Rain = 0
KFVS 190655Z 15007KT 12/02 A2996 RMK A01 T01150022  RH  053%=      5-min Rain = 0
KFVS 190700Z 16006KT 12/02 A2996 RMK A01 T01150020  RH  053%=      5-min Rain = 0
KFVS 190705Z 15005KT 12/02 A2996 RMK A01 T01150019  RH  053%=      5-min Rain = 0
KFVS 190710Z 15004KT 12/02 A2996 RMK A01 T01150019  RH  052%=      5-min Rain = 0
KFVS 190715Z 14004KT 12/02 A2996 RMK A01 T01160019  RH  052%=      5-min Rain = 0
KFVS 190720Z 15005KT 12/02 A2996 RMK A01 T01150019  RH  053%=      5-min Rain = 0
KFVS 190725Z 16004KT 11/02 A2997 RMK A01 T01130019  RH  053%=      5-min Rain = 0
KFVS 190730Z 15003KT 11/02 A2997 RMK A01 T01140020  RH  053%=      5-min Rain = 0
KFVS 190735Z 16003KT 12/02 A2997 RMK A01 T01150019  RH  053%=      5-min Rain = 0
KFVS 190740Z 15003KT 11/02 A2996 RMK A01 T01130019  RH  053%=      5-min Rain = 0
KFVS 190745Z 16003KT 11/02 A2997 RMK A01 T01140020  RH  053%=      5-min Rain = 0
KFVS 190750Z 16003KT 12/02 A2997 RMK A01 T01160020  RH  053%=      5-min Rain = 0
KFVS 190755Z 16003KT 12/02 A2996 RMK A01 T01160020  RH  052%=      5-min Rain = 0
KFVS 190800Z 16003KT 12/02 A2996 RMK A01 T01170020  RH  052%=      5-min Rain = 0
KFVS 190805Z 14003KT 12/02 A2996 RMK A01 T01170019  RH  052%=      5-min Rain = 0
KFVS 190810Z 15004KT 11/02 A2997 RMK A01 T01120018  RH  053%=      5-min Rain = 0
KFVS 190815Z 14004KT 11/02 A2997 RMK A01 T01120019  RH  054%=      5-min Rain = 0
KFVS 190820Z 16004KT 12/02 A2997 RMK A01 T01160019  RH  052%=      5-min Rain = 0
KFVS 190825Z 15004KT 12/02 A2997 RMK A01 T01170019  RH  052%=      5-min Rain = 0
KFVS 190830Z 16005KT 11/02 A2997 RMK A01 T01110017  RH  053%=      5-min Rain = 0
KFVS 190835Z 16005KT 10/02 A2997 RMK A01 T01040018  RH  056%=      5-min Rain = 0
KFVS 190840Z 18006KT 10/02 A2997 RMK A01 T01010017  RH  057%=      5-min Rain = 0
KFVS 190845Z 18007KT 09/02 A2997 RMK A01 T00920017  RH  060%=      5-min Rain = 0
KFVS 190850Z 18007KT 09/02 A2997 RMK A01 T00920020  RH  061%=      5-min Rain = 0
KFVS 190855Z 19007KT 09/02 A2997 RMK A01 T00940023  RH  062%=      5-min Rain = 0
KFVS 190900Z 18006KT 10/02 A2997 RMK A01 T01030022  RH  058%=      5-min Rain = 0
KFVS 190905Z 17003KT 10/02 A2997 RMK A01 T01020021  RH  058%=      5-min Rain = 0
KFVS 190910Z 17003KT 10/02 A2997 RMK A01 T01040022  RH  058%=      5-min Rain = 0
KFVS 190915Z 16003KT 11/02 A2996 RMK A01 T01070020  RH  056%=      5-min Rain = 0
KFVS 190920Z 16004KT 11/02 A2996 RMK A01 T01060019  RH  056%=      5-min Rain = 0
KFVS 190925Z 16004KT 10/02 A2996 RMK A01 T01020019  RH  057%=      5-min Rain = 0
KFVS 190930Z 16005KT 10/02 A2996 RMK A01 T00980019  RH  059%=      5-min Rain = 0
KFVS 190935Z 16004KT 09/02 A2996 RMK A01 T00920018  RH  061%=      5-min Rain = 0
KFVS 190940Z 17005KT 09/02 A2996 RMK A01 T00930018  RH  060%=      5-min Rain = 0
KFVS 190945Z 18003KT 09/02 A2996 RMK A01 T00920019  RH  061%=      5-min Rain = 0
KFVS 190950Z 16004KT 10/02 A2996 RMK A01 T00980019  RH  059%=      5-min Rain = 0
KFVS 190955Z 15004KT 10/02 A2996 RMK A01 T01000019  RH  058%=      5-min Rain = 0
KFVS 191000Z 14004KT 10/02 A2996 RMK A01 T01000018  RH  058%=      5-min Rain = 0
KFVS 191005Z 14004KT 09/02 A2995 RMK A01 T00940018  RH  060%=      5-min Rain = 0
KFVS 191010Z 15004KT 09/02 A2995 RMK A01 T00920018  RH  061%=      5-min Rain = 0
KFVS 191015Z 14003KT 09/02 A2995 RMK A01 T00910018  RH  061%=      5-min Rain = 0
KFVS 191020Z 13002KT 08/02 A2995 RMK A01 T00830016  RH  063%=      5-min Rain = 0
KFVS 191025Z 14003KT 08/02 A2995 RMK A01 T00820017  RH  065%=      5-min Rain = 0
KFVS 191030Z 13005KT 08/02 A2995 RMK A01 T00840018  RH  064%=      5-min Rain = 0
KFVS 191035Z 13005KT 09/02 A2995 RMK A01 T00860017  RH  063%=      5-min Rain = 0
KFVS 191040Z 13005KT 09/02 A2995 RMK A01 T00850017  RH  063%=      5-min Rain = 0
KFVS 191045Z 13004KT 08/02 A2995 RMK A01 T00840016  RH  063%=      5-min Rain = 0
KFVS 191050Z 11003KT 07/01 A2995 RMK A01 T00720012  RH  067%=      5-min Rain = 0
KFVS 191055Z 10003KT 06/01 A2995 RMK A01 T00630013  RH  071%=      5-min Rain = 0
KFVS 191100Z 12003KT 07/02 A2995 RMK A01 T00720017  RH  069%=      5-min Rain = 0
KFVS 191105Z 12003KT 08/02 A2995 RMK A01 T00750017  RH  068%=      5-min Rain = 0
KFVS 191110Z 11004KT 08/02 A2995 RMK A01 T00790017  RH  066%=      5-min Rain = 0
KFVS 191115Z 12004KT 07/02 A2995 RMK A01 T00740015  RH  067%=      5-min Rain = 0
KFVS 191120Z 13004KT 07/01 A2995 RMK A01 T00690014  RH  069%=      5-min Rain = 0
KFVS 191125Z 14004KT 07/02 A2995 RMK A01 T00730016  RH  068%=      5-min Rain = 0
KFVS 191130Z 15004KT 08/02 A2995 RMK A01 T00780016  RH  066%=      5-min Rain = 0
KFVS 191135Z 16004KT 08/02 A2995 RMK A01 T00800016  RH  065%=      5-min Rain = 0
KFVS 191140Z 16004KT 08/02 A2995 RMK A01 T00800015  RH  065%=      5-min Rain = 0
KFVS 191145Z 16004KT 08/02 A2995 RMK A01 T00760016  RH  067%=      5-min Rain = 0
KFVS 191150Z 15004KT 08/02 A2995 RMK A01 T00750015  RH  066%=      5-min Rain = 0
KFVS 191155Z 14003KT 07/01 A2995 RMK A01 T00710014  RH  068%=      5-min Rain = 0
KFVS 191200Z 14003KT 06/01 A2995 RMK A01 T00630010  RH  070%=      5-min Rain = 0
KFVS 191205Z 15003KT 06/01 A2995 RMK A01 T00580009  RH  072%=      5-min Rain = 0
KFVS 191210Z 14002KT 06/01 A2995 RMK A01 T00560009  RH  073%=      5-min Rain = 0
KFVS 191215Z 14002KT 05/01 A2995 RMK A01 T00540010  RH  074%=      5-min Rain = 0
KFVS 191220Z 14002KT 06/01 A2995 RMK A01 T00600012  RH  072%=      5-min Rain = 0
KFVS 191225Z 14002KT 07/01 A2995 RMK A01 T00650012  RH  070%=      5-min Rain = 0
KFVS 191230Z 14002KT 07/01 A2995 RMK A01 T00670013  RH  069%=      5-min Rain = 0
KFVS 191235Z 12003KT 07/01 A2995 RMK A01 T00710013  RH  068%=      5-min Rain = 0
KFVS 191240Z 11003KT 07/01 A2996 RMK A01 T00720013  RH  067%=      5-min Rain = 0
KFVS 191245Z 15005KT 07/01 A2997 RMK A01 T00690012  RH  068%=      5-min Rain = 0
KFVS 191250Z 16006KT 06/01 A2997 RMK A01 T00590009  RH  071%=      5-min Rain = 0
KFVS 191255Z 15006KT 06/01 A2997 RMK A01 T00560011  RH  074%=      5-min Rain = 0
KFVS 191300Z 16005KT 06/01 A2997 RMK A01 T00590012  RH  073%=      5-min Rain = 0
KFVS 191305Z 17005KT 06/01 A2997 RMK A01 T00600012  RH  072%=      5-min Rain = 0
KFVS 191310Z 17005KT 07/01 A2997 RMK A01 T00660014  RH  071%=      5-min Rain = 0
KFVS 191315Z 16005KT 07/01 A2997 RMK A01 T00660014  RH  070%=      5-min Rain = 0
KFVS 191320Z 15005KT 07/01 A2997 RMK A01 T00650013  RH  071%=      5-min Rain = 0
KFVS 191325Z 15005KT 06/01 A2997 RMK A01 T00590011  RH  072%=      5-min Rain = 0
KFVS 191330Z 16005KT 06/01 A2997 RMK A01 T00550012  RH  075%=      5-min Rain = 0
KFVS 191335Z 16004KT 06/01 A2997 RMK A01 T00550014  RH  076%=      5-min Rain = 0
KFVS 191340Z 16005KT 06/02 A2997 RMK A01 T00580015  RH  075%=      5-min Rain = 0
KFVS 191345Z 16004KT 06/02 A2997 RMK A01 T00600015  RH  074%=      5-min Rain = 0
KFVS 191350Z 15004KT 06/02 A2997 RMK A01 T00610017  RH  075%=      5-min Rain = 0
KFVS 191355Z 15004KT 07/02 A2997 RMK A01 T00650018  RH  073%=      5-min Rain = 0
KFVS 191400Z 15005KT 07/02 A2997 RMK A01 T00670020  RH  073%=      5-min Rain = 0
KFVS 191405Z 15004KT 07/02 A2997 RMK A01 T00710023  RH  073%=      5-min Rain = 0
KFVS 191410Z 17004KT 08/03 A2997 RMK A01 T00770027  RH  072%=      5-min Rain = 0
KFVS 191415Z 17004KT 08/03 A2997 RMK A01 T00830030  RH  071%=      5-min Rain = 0
KFVS 191420Z 17004KT 09/03 A2998 RMK A01 T00890034  RH  070%=      5-min Rain = 0
KFVS 191425Z 18004KT 09/04 A2998 RMK A01 T00930036  RH  069%=      5-min Rain = 0
KFVS 191430Z 18004KT 10/04 A2998 RMK A01 T01010036  RH  065%=      5-min Rain = 0
KFVS 191435Z 19005KT 11/04 A2998 RMK A01 T01080038  RH  063%=      5-min Rain = 0
KFVS 191440Z 19006KT 12/04 A2998 RMK A01 T01150037  RH  060%=      5-min Rain = 0
KFVS 191445Z 19007KT 12/04 A2998 RMK A01 T01180035  RH  058%=      5-min Rain = 0
KFVS 191450Z 19007KT 12/04 A2998 RMK A01 T01200036  RH  057%=      5-min Rain = 0
KFVS 191455Z 19008KT 12/04 A2997 RMK A01 T01230037  RH  057%=      5-min Rain = 0
KFVS 191500Z 19008KT 12/04 A2997 RMK A01 T01230038  RH  057%=      5-min Rain = 0
KFVS 191505Z 20008KT 13/04 A2997 RMK A01 T01250038  RH  056%=      5-min Rain = 0
KFVS 191510Z 19007KT 13/04 A2997 RMK A01 T01290040  RH  056%=      5-min Rain = 0
KFVS 191515Z 19008KT 13/04 A2997 RMK A01 T01310038  RH  054%=      5-min Rain = 0
KFVS 191520Z 20008KT 13/04 A2998 RMK A01 T01340041  RH  055%=      5-min Rain = 0
KFVS 191525Z 20010KT 14/04 A2998 RMK A01 T01350041  RH  054%=      5-min Rain = 0
KFVS 191530Z 20009KT 14/04 A2998 RMK A01 T01360042  RH  054%=      5-min Rain = 0
KFVS 191535Z 21009KT 14/04 A2998 RMK A01 T01380043  RH  054%=      5-min Rain = 0
KFVS 191540Z 20010G15KT 14/05 A2998 RMK A01 T01390045  RH  054%=      5-min Rain = 0
KFVS 191545Z 21010KT 14/05 A2998 RMK A01 T01420047  RH  054%=      5-min Rain = 0
KFVS 191550Z 21011G16KT 14/05 A2998 RMK A01 T01410047  RH  054%=      5-min Rain = 0
KFVS 191555Z 21011G16KT 14/05 A2998 RMK A01 T01420048  RH  054%=      5-min Rain = 0
KFVS 191600Z 21010G15KT 15/05 A2998 RMK A01 T01480051  RH  054%=      5-min Rain = 0
KFVS 191605Z 21011G16KT 15/05 A2998 RMK A01 T01530052  RH  052%=      5-min Rain = 0
KFVS 191610Z 22012KT 16/05 A2998 RMK A01 T01550052  RH  051%=      5-min Rain = 0
KFVS 191615Z 21011KT 16/05 A2998 RMK A01 T01570052  RH  051%=      5-min Rain = 0
KFVS 191620Z 21010KT 16/05 A2998 RMK A01 T01590052  RH  050%=      5-min Rain = 0
KFVS 191625Z 20010KT 16/05 A2998 RMK A01 T01600051  RH  050%=      5-min Rain = 0
KFVS 191630Z 20010KT 16/05 A2998 RMK A01 T01580050  RH  050%=      5-min Rain = 0
KFVS 191635Z 21010KT 16/05 A2998 RMK A01 T01600052  RH  050%=      5-min Rain = 0
KFVS 191640Z 21009KT 16/05 A2998 RMK A01 T01630053  RH  049%=      5-min Rain = 0
KFVS 191645Z 20009KT 17/05 A2998 RMK A01 T01670054  RH  048%=      5-min Rain = 0
KFVS 191650Z 20010KT 17/05 A2997 RMK A01 T01690053  RH  048%=      5-min Rain = 0
KFVS 191655Z 19009KT 17/06 A2997 RMK A01 T01700055  RH  048%=      5-min Rain = 0
KFVS 191700Z 20008KT 17/06 A2997 RMK A01 T01730056  RH  047%=      5-min Rain = 0
KFVS 191705Z 19009KT 18/06 A2997 RMK A01 T01770058  RH  047%=      5-min Rain = 0
KFVS 191710Z 20010KT 18/06 A2997 RMK A01 T01800059  RH  046%=      5-min Rain = 0
KFVS 191715Z 20010KT 18/06 A2996 RMK A01 T01820058  RH  045%=      5-min Rain = 0
KFVS 191720Z 20010KT 18/06 A2996 RMK A01 T01830060  RH  045%=      5-min Rain = 0
KFVS 191725Z 19011G16KT 19/06 A2996 RMK A01 T01860059  RH  044%=      5-min Rain = 0
KFVS 191730Z 19012KT 19/06 A2995 RMK A01 T01870059  RH  044%=      5-min Rain = 0
KFVS 191735Z 20012KT 19/06 A2995 RMK A01 T01910060  RH  043%=      5-min Rain = 0
KFVS 191740Z 20012KT 19/06 A2995 RMK A01 T01940059  RH  042%=      5-min Rain = 0
KFVS 191745Z 20010KT 20/06 A2994 RMK A01 T01960061  RH  042%=      5-min Rain = 0
KFVS 191750Z 19011KT 20/06 A2994 RMK A01 T02030061  RH  040%=      5-min Rain = 0
KFVS 191755Z 19013KT 20/06 A2994 RMK A01 T02010059  RH  040%=      5-min Rain = 0
KFVS 191800Z 20013KT 20/06 A2994 RMK A01 T02020060  RH  040%=      5-min Rain = 0
KFVS 191805Z 19010G16KT 21/06 A2993 RMK A01 T02050060  RH  040%=      5-min Rain = 0
KFVS 191810Z 19011KT 21/06 A2993 RMK A01 T02080061  RH  039%=      5-min Rain = 0
KFVS 191815Z 18012KT 21/06 A2993 RMK A01 T02090061  RH  039%=      5-min Rain = 0
KFVS 191820Z 18011KT 21/06 A2993 RMK A01 T02120060  RH  038%=      5-min Rain = 0
KFVS 191825Z 20012KT 21/06 A2992 RMK A01 T02120060  RH  038%=      5-min Rain = 0
KFVS 191830Z 19011G16KT 21/06 A2992 RMK A01 T02140060  RH  038%=      5-min Rain = 0
KFVS 191835Z 19012KT 22/06 A2992 RMK A01 T02190056  RH  035%=      5-min Rain = 0
KFVS 191840Z 18012KT 22/06 A2991 RMK A01 T02240059  RH  035%=      5-min Rain = 0
KFVS 191845Z 18011KT 22/06 A2991 RMK A01 T02240057  RH  035%=      5-min Rain = 0
KFVS 191850Z 19013G18KT 23/06 A2991 RMK A01 T02270057  RH  034%=      5-min Rain = 0
KFVS 191855Z 20013G18KT 23/05 A2991 RMK A01 T02250054  RH  034%=      5-min Rain = 0
KFVS 191900Z 19012KT 23/06 A299 RMK A01 T02280057  RH  034%=      5-min Rain = 0
KFVS 191905Z 18013G18KT 23/06 A299 RMK A01 T02280057  RH  034%=      5-min Rain = 0
KFVS 191910Z 18014G19KT 23/06 A299 RMK A01 T02280059  RH  034%=      5-min Rain = 0
KFVS 191915Z 19015G20KT 23/06 A2989 RMK A01 T02310060  RH  034%=      5-min Rain = 0
KFVS 191920Z 19016KT 23/06 A2989 RMK A01 T02330059  RH  033%=      5-min Rain = 0
KFVS 191925Z 19015KT 23/06 A2989 RMK A01 T02330060  RH  034%=      5-min Rain = 0
KFVS 191930Z 20014G19KT 24/06 A2988 RMK A01 T02350060  RH  033%=      5-min Rain = 0
KFVS 191935Z 19017G23KT 24/05 A2988 RMK A01 T02420049  RH  029%=      5-min Rain = 0
KFVS 191940Z 19016G21KT 24/04 A2988 RMK A01 T02430041  RH  027%=      5-min Rain = 0
KFVS 191945Z 18015G21KT 24/04 A2988 RMK A01 T02430041  RH  027%=      5-min Rain = 0
KFVS 191950Z 18017G23KT 25/04 A2987 RMK A01 T02470040  RH  027%=      5-min Rain = 0
KFVS 191955Z 19016G21KT 25/04 A2987 RMK A01 T02470036  RH  026%=      5-min Rain = 0
KFVS 192000Z 19015G21KT 25/04 A2987 RMK A01 T02470037  RH  026%=      5-min Rain = 0
KFVS 192005Z 18014G19KT 25/04 A2987 RMK A01 T02460038  RH  026%=      5-min Rain = 0
KFVS 192010Z 19015G24KT 25/03 A2986 RMK A01 T02510033  RH  025%=      5-min Rain = 0
KFVS 192015Z 18014KT 25/03 A2986 RMK A01 T02510033  RH  025%=      5-min Rain = 0
KFVS 192020Z 20015KT 25/03 A2986 RMK A01 T02530029  RH  024%=      5-min Rain = 0
KFVS 192025Z 19014KT 25/02 A2986 RMK A01 T02530024  RH  023%=      5-min Rain = 0
KFVS 192030Z 19014KT 25/02 A2985 RMK A01 T02540021  RH  022%=      5-min Rain = 0
KFVS 192035Z 18014KT 25/02 A2985 RMK A01 T02540022  RH  022%=      5-min Rain = 0
KFVS 192040Z 19013G18KT 25/02 A2985 RMK A01 T02530018  RH  022%=      5-min Rain = 0
KFVS 192045Z 19014G19KT 25/02 A2985 RMK A01 T02530022  RH  023%=      5-min Rain = 0
KFVS 192050Z 20013KT 25/02 A2985 RMK A01 T02540024  RH  023%=      5-min Rain = 0
KFVS 192055Z 19014KT 25/02 A2984 RMK A01 T02540023  RH  023%=      5-min Rain = 0
KFVS 192100Z 19013KT 25/03 A2984 RMK A01 T02540026  RH  023%=      5-min Rain = 0
KFVS 192105Z 20011KT 25/02 A2984 RMK A01 T02540024  RH  023%=      5-min Rain = 0
KFVS 192110Z 18012G17KT 26/03 A2984 RMK A01 T02550027  RH  023%=      5-min Rain = 0
KFVS 192115Z 18014KT 26/03 A2984 RMK A01 T02570026  RH  023%=      5-min Rain = 0
KFVS 192120Z 19015KT 26/03 A2983 RMK A01 T02580025  RH  022%=      5-min Rain = 0
KFVS 192125Z 20015KT 26/02 A2984 RMK A01 T02550020  RH  022%=      5-min Rain = 0
KFVS 192130Z 21014G19KT 25/01 A2983 RMK A01 T02530011  RH  021%=      5-min Rain = 0
KFVS 192135Z 20012KT 25/02 A2983 RMK A01 T02500015  RH  022%=      5-min Rain = 0
KFVS 192140Z 19011KT 25/03 A2983 RMK A01 T02480028  RH  024%=      5-min Rain = 0
KFVS 192145Z 21013G18KT 25/02 A2983 RMK A01 T02480015  RH  022%=      5-min Rain = 0
KFVS 192150Z 20012KT 25/02 A2983 RMK A01 T02470015  RH  022%=      5-min Rain = 0
KFVS 192155Z 20012G19KT 25/02 A2983 RMK A01 T02490020  RH  023%=      5-min Rain = 0
KFVS 192200Z 19012G17KT 25/02 A2983 RMK A01 T02500023  RH  023%=      5-min Rain = 0
KFVS 192205Z 18014G19KT 25/03 A2983 RMK A01 T02480028  RH  024%=      5-min Rain = 0
KFVS 192210Z 20013KT 25/03 A2983 RMK A01 T02500029  RH  024%=      5-min Rain = 0
KFVS 192215Z 19012KT 25/03 A2983 RMK A01 T02530030  RH  024%=      5-min Rain = 0
KFVS 192220Z 20013KT 25/02 A2983 RMK A01 T02530024  RH  023%=      5-min Rain = 0
KFVS 192225Z 19014G19KT 25/02 A2983 RMK A01 T02500023  RH  023%=      5-min Rain = 0
KFVS 192230Z 19014KT 25/02 A2983 RMK A01 T02450022  RH  024%=      5-min Rain = 0
KFVS 192235Z 20013KT 24/02 A2983 RMK A01 T02400021  RH  024%=      5-min Rain = 0
KFVS 192240Z 20012KT 24/02 A2983 RMK A01 T02360024  RH  025%=      5-min Rain = 0
KFVS 192245Z 20011KT 24/03 A2983 RMK A01 T02350026  RH  026%=      5-min Rain = 0
KFVS 192250Z 20010KT 23/03 A2983 RMK A01 T02340028  RH  026%=      5-min Rain = 0
KFVS 192255Z 19010KT 23/03 A2983 RMK A01 T02310029  RH  027%=      5-min Rain = 0
KFVS 192300Z 19011KT 23/03 A2983 RMK A01 T02340030  RH  027%=      5-min Rain = 0
KFVS 192305Z 18009KT 23/03 A2982 RMK A01 T02340031  RH  027%=      5-min Rain = 0
KFVS 192310Z 18009KT 23/03 A2982 RMK A01 T02320031  RH  027%=      5-min Rain = 0
KFVS 192315Z 18009KT 23/03 A2983 RMK A01 T02310031  RH  028%=      5-min Rain = 0
KFVS 192320Z 18008KT 23/03 A2983 RMK A01 T02270031  RH  028%=      5-min Rain = 0
KFVS 192325Z 18008KT 22/03 A2982 RMK A01 T02220032  RH  029%=      5-min Rain = 0
KFVS 192330Z 17009KT 22/03 A2982 RMK A01 T02180032  RH  030%=      5-min Rain = 0
KFVS 192335Z 17009KT 22/03 A2983 RMK A01 T02160032  RH  030%=      5-min Rain = 0
KFVS 192340Z 18008KT 21/03 A2982 RMK A01 T02120032  RH  031%=      5-min Rain = 0
KFVS 192345Z 17010KT 21/03 A2982 RMK A01 T02100032  RH  031%=      5-min Rain = 0
KFVS 192350Z 17010KT 21/03 A2982 RMK A01 T02080031  RH  032%=      5-min Rain = 0
KFVS 192355Z 17011KT 21/03 A2982 RMK A01 T02060031  RH  032%=      5-min Rain = 0
KFVS 200000Z 17010KT 20/03 A2982 RMK A01 T02020032  RH  033%=      5-min Rain = 0
KFVS 200005Z 17010KT 20/03 A2982 RMK A01 T02000032  RH  034%=      5-min Rain = 0
KFVS 200010Z 17010KT 20/03 A2982 RMK A01 T01970032  RH  034%=      5-min Rain = 0
KFVS 200015Z 17010KT 20/03 A2983 RMK A01 T01970032  RH  034%=      5-min Rain = 0
KFVS 200020Z 17010KT 20/03 A2983 RMK A01 T01970032  RH  034%=      5-min Rain = 0
KFVS 200025Z 17011KT 20/03 A2983 RMK A01 T01980032  RH  034%=      5-min Rain = 0
KFVS 200030Z 17011KT 20/03 A2983 RMK A01 T01990032  RH  034%=      5-min Rain = 0
KFVS 200035Z 17011KT 20/03 A2983 RMK A01 T01990032  RH  034%=      5-min Rain = 0
KFVS 200040Z 17011KT 20/03 A2982 RMK A01 T01980032  RH  034%=      5-min Rain = 0
KFVS 200045Z 17011KT 20/03 A2982 RMK A01 T01970033  RH  034%=      5-min Rain = 0
KFVS 200050Z 17011KT 19/03 A2982 RMK A01 T01930033  RH  035%=      5-min Rain = 0
KFVS 200055Z 17012KT 19/03 A2983 RMK A01 T01890034  RH  036%=      5-min Rain = 0
KFVS 200100Z 17012KT 19/04 A2983 RMK A01 T01900035  RH  036%=      5-min Rain = 0
KFVS 200105Z 17012KT 19/04 A2983 RMK A01 T01880036  RH  037%=      5-min Rain = 0
KFVS 200110Z 17012KT 19/04 A2983 RMK A01 T01870037  RH  038%=      5-min Rain = 0
KFVS 200115Z 17012KT 19/04 A2983 RMK A01 T01870038  RH  038%=      5-min Rain = 0
KFVS 200120Z 17012KT 19/04 A2983 RMK A01 T01860040  RH  039%=      5-min Rain = 0
KFVS 200125Z 17012KT 19/04 A2983 RMK A01 T01850041  RH  039%=      5-min Rain = 0
KFVS 200130Z 17012KT 18/04 A2983 RMK A01 T01840042  RH  040%=      5-min Rain = 0
KFVS 200135Z 17013KT 18/04 A2983 RMK A01 T01830044  RH  041%=      5-min Rain = 0
KFVS 200140Z 17013KT 18/05 A2983 RMK A01 T01820045  RH  041%=      5-min Rain = 0
KFVS 200145Z 17012KT 18/05 A2983 RMK A01 T01800046  RH  042%=      5-min Rain = 0
KFVS 200150Z 17011KT 18/05 A2983 RMK A01 T01780046  RH  043%=      5-min Rain = 0
KFVS 200155Z 18010KT 18/05 A2984 RMK A01 T01760048  RH  044%=      5-min Rain = 0
KFVS 200200Z 17011KT 17/05 A2984 RMK A01 T01730048  RH  045%=      5-min Rain = 0
KFVS 200205Z 17011KT 17/05 A2984 RMK A01 T01730049  RH  045%=      5-min Rain = 0
KFVS 200210Z 17012G17KT 17/05 A2984 RMK A01 T01730050  RH  045%=      5-min Rain = 0
KFVS 200215Z 17013KT 18/05 A2984 RMK A01 T01760052  RH  045%=      5-min Rain = 0
KFVS 200220Z 18012KT 17/05 A2984 RMK A01 T01740053  RH  046%=      5-min Rain = 0
KFVS 200225Z 18013KT 17/05 A2984 RMK A01 T01710054  RH  047%=      5-min Rain = 0
KFVS 200230Z 17013KT 17/05 A2984 RMK A01 T01690054  RH  048%=      5-min Rain = 0
KFVS 200235Z 17013KT 17/06 A2984 RMK A01 T01690055  RH  048%=      5-min Rain = 0
KFVS 200240Z 17013KT 17/06 A2984 RMK A01 T01690055  RH  048%=      5-min Rain = 0
KFVS 200245Z 18013KT 17/06 A2984 RMK A01 T01660056  RH  049%=      5-min Rain = 0
KFVS 200250Z 18013KT 17/06 A2984 RMK A01 T01670057  RH  049%=      5-min Rain = 0
KFVS 200255Z 18013KT 17/06 A2984 RMK A01 T01660057  RH  050%=      5-min Rain = 0
KFVS 200300Z 18012KT 16/06 A2984 RMK A01 T01640057  RH  050%=      5-min Rain = 0
KFVS 200305Z 18013KT 16/06 A2984 RMK A01 T01620058  RH  051%=      5-min Rain = 0
KFVS 200310Z 17014KT 16/06 A2984 RMK A01 T01610058  RH  052%=      5-min Rain = 0
KFVS 200315Z 18013KT 16/06 A2984 RMK A01 T01610059  RH  052%=      5-min Rain = 0
KFVS 200320Z 18012KT 16/06 A2984 RMK A01 T01590059  RH  053%=      5-min Rain = 0
KFVS 200325Z 18013KT 16/06 A2984 RMK A01 T01560059  RH  054%=      5-min Rain = 0
KFVS 200330Z 18013KT 16/06 A2984 RMK A01 T01560060  RH  054%=      5-min Rain = 0
KFVS 200335Z 18012KT 16/06 A2985 RMK A01 T01550060  RH  055%=      5-min Rain = 0
KFVS 200340Z 18012KT 16/06 A2985 RMK A01 T01550061  RH  055%=      5-min Rain = 0
KFVS 200345Z 18012KT 15/06 A2985 RMK A01 T01540061  RH  055%=      5-min Rain = 0
KFVS 200350Z 17012KT 16/06 A2985 RMK A01 T01560063  RH  055%=      5-min Rain = 0
KFVS 200355Z 17012KT 16/06 A2985 RMK A01 T01580063  RH  055%=      5-min Rain = 0
KFVS 200400Z 17011KT 16/06 A2985 RMK A01 T01560063  RH  055%=      5-min Rain = 0
KFVS 200405Z 17011KT 15/06 A2985 RMK A01 T01530062  RH  056%=      5-min Rain = 0
KFVS 200410Z 17011KT 15/06 A2985 RMK A01 T01500062  RH  057%=      5-min Rain = 0
KFVS 200415Z 17011KT 15/06 A2985 RMK A01 T01490062  RH  058%=      5-min Rain = 0
KFVS 200420Z 16010KT 15/06 A2985 RMK A01 T01480063  RH  058%=      5-min Rain = 0
KFVS 200425Z 16010KT 15/06 A2985 RMK A01 T01470063  RH  059%=      5-min Rain = 0
KFVS 200430Z 17011KT 15/06 A2985 RMK A01 T01450064  RH  060%=      5-min Rain = 0
KFVS 200435Z 17012KT 15/07 A2985 RMK A01 T01460066  RH  060%=      5-min Rain = 0
KFVS 200440Z 17012KT 15/07 A2985 RMK A01 T01470068  RH  060%=      5-min Rain = 0
KFVS 200445Z 17013KT 15/07 A2985 RMK A01 T01480069  RH  061%=      5-min Rain = 0
KFVS 200450Z 17012KT 15/07 A2985 RMK A01 T01480070  RH  061%=      5-min Rain = 0
KFVS 200455Z 18012KT 15/07 A2985 RMK A01 T01460071  RH  062%=      5-min Rain = 0
KFVS 200500Z 17011KT 15/07 A2985 RMK A01 T01470072  RH  062%=      5-min Rain = 0
KFVS 200505Z 17011KT 15/07 A2985 RMK A01 T01470072  RH  063%=      5-min Rain = 0
KFVS 200510Z 18012KT 15/07 A2986 RMK A01 T01450073  RH  064%=      5-min Rain = 0
KFVS 200515Z 18011KT 15/08 A2986 RMK A01 T01450075  RH  064%=      5-min Rain = 0
KFVS 200520Z 18011KT 15/08 A2986 RMK A01 T01460076  RH  065%=      5-min Rain = 0
KFVS 200525Z 17011KT 15/08 A2986 RMK A01 T01470078  RH  065%=      5-min Rain = 0
KFVS 200530Z 18011KT 15/08 A2985 RMK A01 T01460078  RH  065%=      5-min Rain = 0
KFVS 200535Z 18011KT 15/08 A2986 RMK A01 T01450078  RH  066%=      5-min Rain = 0
KFVS 200540Z 18010KT 14/08 A2985 RMK A01 T01440080  RH  067%=      5-min Rain = 0
KFVS 200545Z 18011KT 15/08 A2985 RMK A01 T01460081  RH  067%=      5-min Rain = 0
KFVS 200550Z 18010KT 14/08 A2985 RMK A01 T01440080  RH  067%=      5-min Rain = 0
KFVS 200555Z 18009KT 14/08 A2986 RMK A01 T01410079  RH  068%=      5-min Rain = 0

Page generated in 0.0089 seconds.